createdAt,value
2022-09-06T00:00:16.991Z,2.42
2022-09-06T00:02:19.262Z,2.33
2022-09-06T00:04:20.849Z,2.42
2022-09-06T00:06:22.639Z,2.40
2022-09-06T00:08:24.277Z,2.45
2022-09-06T00:10:29.249Z,2.50
2022-09-06T00:12:31.420Z,2.03
2022-09-06T00:14:33.087Z,2.50
2022-09-06T00:16:35.010Z,2.42
2022-09-06T00:18:36.784Z,2.38
2022-09-06T00:20:41.521Z,2.40
2022-09-06T00:22:43.148Z,2.20
2022-09-06T00:24:44.655Z,2.10
2022-09-06T00:26:46.269Z,2.13
2022-09-06T00:28:50.560Z,2.50
2022-09-06T00:30:52.231Z,2.42
2022-09-06T00:32:54.589Z,2.10
2022-09-06T00:34:56.234Z,2.90
2022-09-06T00:36:58.007Z,2.88
2022-09-06T00:38:59.518Z,2.50
2022-09-06T00:41:01.486Z,2.53
2022-09-06T00:43:03.760Z,2.90
2022-09-06T00:45:08.554Z,2.88
2022-09-06T00:47:12.723Z,2.67
2022-09-06T00:49:37.095Z,2.72
2022-09-06T00:51:40.057Z,3.03
2022-09-06T00:53:41.740Z,2.70
2022-09-06T00:55:43.869Z,2.60
2022-09-06T00:57:46.570Z,2.70
2022-09-06T00:59:48.593Z,2.33
2022-09-06T01:01:50.321Z,2.72
2022-09-06T01:03:52.355Z,2.53
2022-09-06T01:06:21.193Z,2.90
2022-09-06T01:08:54.020Z,2.42
2022-09-06T01:11:05.363Z,2.63
2022-09-06T01:13:18.078Z,2.65
2022-09-06T01:15:28.500Z,2.67
2022-09-06T01:17:48.011Z,2.47
2022-09-06T01:20:10.010Z,2.65
2022-09-06T01:22:17.230Z,2.53
2022-09-06T01:24:37.705Z,2.80
2022-09-06T01:26:51.388Z,2.50
2022-09-06T01:28:54.113Z,2.63
2022-09-06T01:31:54.113Z,2.72
2022-09-06T01:34:35.093Z,3.20
2022-09-06T01:37:08.253Z,2.70
2022-09-06T01:39:20.793Z,2.50
2022-09-06T01:41:22.656Z,2.63
2022-09-06T01:43:29.196Z,2.60
2022-09-06T01:45:58.422Z,2.92
2022-09-06T01:48:11.332Z,2.72
2022-09-06T01:50:43.525Z,3.00
2022-09-06T01:52:45.071Z,2.95
2022-09-06T01:55:12.169Z,2.75
2022-09-06T01:57:28.118Z,2.88
2022-09-06T01:59:53.661Z,3.15
2022-09-06T02:02:12.691Z,2.85
2022-09-06T02:04:22.969Z,2.80
2022-09-06T02:06:29.688Z,2.85
2022-09-06T02:08:43.527Z,2.75
2022-09-06T02:10:55.826Z,2.85
2022-09-06T02:13:01.349Z,2.70
2022-09-06T02:15:10.331Z,2.53
2022-09-06T02:17:15.782Z,2.70
2022-09-06T02:19:39.666Z,2.78
2022-09-06T02:21:46.413Z,2.50
2022-09-06T02:23:50.208Z,2.95
2022-09-06T02:25:59.528Z,2.60
2022-09-06T02:28:01.369Z,3.30
2022-09-06T02:30:05.412Z,2.90
2022-09-06T02:32:19.131Z,2.58
2022-09-06T02:34:21.870Z,2.40
2022-09-06T02:36:23.952Z,2.80
2022-09-06T02:38:27.211Z,2.90
2022-09-06T02:40:29.183Z,2.83
2022-09-06T02:42:31.819Z,2.80
2022-09-06T02:44:33.514Z,2.78
2022-09-06T02:46:35.275Z,2.83
2022-09-06T02:48:36.716Z,2.72
2022-09-06T02:50:38.441Z,2.90
2022-09-06T02:52:40.455Z,3.45
2022-09-06T02:54:41.995Z,3.13
2022-09-06T02:56:43.794Z,2.90
2022-09-06T02:58:45.396Z,2.97
2022-09-06T03:00:48.068Z,2.90
2022-09-06T03:02:49.672Z,3.10
2022-09-06T03:04:51.423Z,3.10
2022-09-06T03:06:53.051Z,3.10
2022-09-06T03:08:54.853Z,3.08
2022-09-06T03:10:56.987Z,3.00
2022-09-06T03:12:58.603Z,3.25
2022-09-06T03:15:00.198Z,2.90
2022-09-06T03:17:03.575Z,2.85
2022-09-06T03:19:08.094Z,2.95
2022-09-06T03:21:09.902Z,2.88
2022-09-06T03:23:15.332Z,3.10
2022-09-06T03:25:17.413Z,3.10
2022-09-06T03:27:24.195Z,3.50
2022-09-06T03:29:25.766Z,3.17
2022-09-06T03:31:27.356Z,3.10
2022-09-06T03:33:28.906Z,3.38
2022-09-06T03:35:31.050Z,3.38
2022-09-06T03:37:32.564Z,3.40
2022-09-06T03:39:34.287Z,3.95
2022-09-06T03:41:36.105Z,3.15
2022-09-06T03:43:37.618Z,3.20
2022-09-06T03:45:39.637Z,2.88
2022-09-06T03:47:41.608Z,3.30
2022-09-06T03:49:43.170Z,3.00
2022-09-06T03:51:44.931Z,3.35
2022-09-06T03:53:46.656Z,2.75
2022-09-06T03:55:50.763Z,3.22
2022-09-06T03:57:52.209Z,3.63
2022-09-06T03:59:54.896Z,2.70
2022-09-06T04:01:56.667Z,3.10
2022-09-06T04:03:58.395Z,3.38
2022-09-06T04:06:00.339Z,3.33
2022-09-06T04:08:02.409Z,3.15
2022-09-06T04:10:04.291Z,3.85
2022-09-06T04:12:07.931Z,3.40
2022-09-06T04:14:09.558Z,3.75
2022-09-06T04:16:11.329Z,3.58
2022-09-06T04:18:12.864Z,3.28
2022-09-06T04:20:17.905Z,3.28
2022-09-06T04:22:22.037Z,3.53
2022-09-06T04:24:23.625Z,2.85
2022-09-06T04:26:25.564Z,2.92
2022-09-06T04:28:28.299Z,3.13
2022-09-06T04:30:30.202Z,3.15
2022-09-06T04:32:34.695Z,3.53
2022-09-06T04:34:36.331Z,3.05
2022-09-06T04:36:38.230Z,3.42
2022-09-06T04:38:42.494Z,2.97
2022-09-06T04:40:44.139Z,3.95
2022-09-06T04:42:45.706Z,3.53
2022-09-06T04:44:47.257Z,3.70
2022-09-06T04:46:49.155Z,3.13
2022-09-06T04:48:52.649Z,3.08
2022-09-06T04:50:54.420Z,3.55
2022-09-06T04:52:56.057Z,4.00
2022-09-06T04:54:57.768Z,3.95
2022-09-06T04:56:59.276Z,3.63
2022-09-06T04:59:00.905Z,3.58
2022-09-06T05:01:02.716Z,3.60
2022-09-06T05:03:04.388Z,4.25
2022-09-06T05:05:06.493Z,3.92
2022-09-06T05:07:09.117Z,3.47
2022-09-06T05:09:12.299Z,3.67
2022-09-06T05:11:14.015Z,3.97
2022-09-06T05:13:17.931Z,4.07
2022-09-06T05:15:21.258Z,3.47
2022-09-06T05:17:22.849Z,3.92
2022-09-06T05:19:24.348Z,4.00
2022-09-06T05:21:26.002Z,3.63
2022-09-06T05:23:29.782Z,3.85
2022-09-06T05:25:31.922Z,4.28
2022-09-06T05:27:33.491Z,3.92
2022-09-06T05:29:35.477Z,4.20
2022-09-06T05:31:37.130Z,3.88
2022-09-06T05:33:39.548Z,4.05
2022-09-06T05:35:41.242Z,4.40
2022-09-06T05:37:42.748Z,3.80
2022-09-06T05:39:44.593Z,3.95
2022-09-06T05:41:46.162Z,4.35
2022-09-06T05:43:48.477Z,3.88
2022-09-06T05:45:50.442Z,4.32
2022-09-06T05:47:52.017Z,4.20
2022-09-06T05:49:54.454Z,3.85
2022-09-06T05:52:00.350Z,3.72
2022-09-06T05:54:02.080Z,4.20
2022-09-06T05:56:04.890Z,3.90
2022-09-06T05:58:06.421Z,4.53
2022-09-06T06:00:08.900Z,4.30
2022-09-06T06:02:13.077Z,4.28
2022-09-06T06:04:14.713Z,3.90
2022-09-06T06:06:16.351Z,4.10
2022-09-06T06:08:20.744Z,4.10
2022-09-06T06:10:22.366Z,4.53
2022-09-06T06:12:23.937Z,4.40
2022-09-06T06:14:25.590Z,4.50
2022-09-06T06:16:27.348Z,4.05
2022-09-06T06:18:29.231Z,4.25
2022-09-06T06:20:31.177Z,4.20
2022-09-06T06:22:32.747Z,4.25
2022-09-06T06:24:34.373Z,4.13
2022-09-06T06:26:36.604Z,4.20
2022-09-06T06:28:38.469Z,4.13
2022-09-06T06:30:40.225Z,4.47
2022-09-06T06:32:41.807Z,4.80
2022-09-06T06:34:43.479Z,4.55
2022-09-06T06:36:45.099Z,4.00
2022-09-06T06:38:50.649Z,4.60
2022-09-06T06:40:56.779Z,4.78
2022-09-06T06:43:01.501Z,4.25
2022-09-06T06:45:03.322Z,4.40
2022-09-06T06:47:05.135Z,4.30
2022-09-06T06:49:06.743Z,4.63
2022-09-06T06:51:09.521Z,4.40
2022-09-06T06:53:11.150Z,4.38
2022-09-06T06:55:13.264Z,4.75
2022-09-06T06:57:14.963Z,4.90
2022-09-06T06:59:16.652Z,4.50
2022-09-06T07:01:20.691Z,4.35
2022-09-06T07:03:22.330Z,4.63
2022-09-06T07:07:46.088Z,5.07
2022-09-06T07:12:09.554Z,4.07
2022-09-06T07:14:11.431Z,5.00
2022-09-06T07:16:20.882Z,4.90
2022-09-06T07:18:22.669Z,4.78
2022-09-06T07:20:26.438Z,4.93
2022-09-06T07:22:28.471Z,4.60
2022-09-06T07:24:30.217Z,4.60
2022-09-06T07:26:32.137Z,4.53
2022-09-06T07:28:34.213Z,4.82
2022-09-06T07:30:39.475Z,4.88
2022-09-06T07:32:43.355Z,4.68
2022-09-06T07:34:45.067Z,5.00
2022-09-06T07:36:47.881Z,4.93
2022-09-06T07:38:50.745Z,4.90
2022-09-06T07:41:00.261Z,4.53
2022-09-06T07:43:01.900Z,4.63
2022-09-06T07:45:05.208Z,4.68
2022-09-06T07:49:34.301Z,5.00
2022-09-06T07:51:36.840Z,4.60
2022-09-06T07:53:40.743Z,4.93
2022-09-06T07:55:42.893Z,5.30
2022-09-06T07:57:44.539Z,5.13
2022-09-06T07:59:46.036Z,4.88
2022-09-06T08:01:48.386Z,5.00
2022-09-06T08:03:50.655Z,4.63
2022-09-06T08:10:31.408Z,4.40
2022-09-06T08:12:32.914Z,4.47
2022-09-06T08:14:35.114Z,4.90
2022-09-06T08:16:38.479Z,4.95
2022-09-06T08:18:43.692Z,4.60
2022-09-06T08:20:45.305Z,4.57
2022-09-06T08:22:46.826Z,4.40
2022-09-06T08:24:48.427Z,4.50
2022-09-06T08:26:50.300Z,4.32
2022-09-06T08:28:57.548Z,4.50
2022-09-06T08:31:10.748Z,4.40
2022-09-06T08:33:12.850Z,4.68
2022-09-06T08:35:14.543Z,5.10
2022-09-06T08:37:16.214Z,5.25
2022-09-06T08:39:18.255Z,4.68
2022-09-06T08:41:38.984Z,4.80
2022-09-06T08:46:27.454Z,5.00
2022-09-06T08:48:33.766Z,4.85
2022-09-06T08:50:37.239Z,4.43
2022-09-06T08:53:17.340Z,4.53
2022-09-06T08:55:33.207Z,4.20
2022-09-06T08:57:57.021Z,3.95
2022-09-06T09:00:04.335Z,4.28
2022-09-06T09:02:05.960Z,4.47
2022-09-06T09:04:15.108Z,4.45
2022-09-06T09:06:16.870Z,4.40
2022-09-06T09:08:27.573Z,4.68
2022-09-06T09:10:32.633Z,4.07
2022-09-06T09:12:41.602Z,4.30
2022-09-06T09:14:48.289Z,4.03
2022-09-06T09:16:52.452Z,4.15
2022-09-06T09:18:58.426Z,3.80
2022-09-06T09:21:00.366Z,4.20
2022-09-06T09:23:02.196Z,4.43
2022-09-06T09:25:05.446Z,4.63
2022-09-06T09:27:11.290Z,5.65
2022-09-06T09:29:14.250Z,5.35
2022-09-06T09:31:34.181Z,5.60
2022-09-06T09:33:39.005Z,5.70
2022-09-06T09:35:42.340Z,5.85
2022-09-06T09:39:54.551Z,6.00
2022-09-06T09:41:56.741Z,5.45
2022-09-06T09:44:17.963Z,5.65
2022-09-06T09:46:22.547Z,4.93
2022-09-06T09:48:27.638Z,4.60
2022-09-06T09:50:33.617Z,4.75
2022-09-06T09:52:44.309Z,5.10
2022-09-06T09:54:47.698Z,5.20
2022-09-06T09:56:54.233Z,5.65
2022-09-06T09:58:58.304Z,5.90
2022-09-06T10:01:15.428Z,6.32
2022-09-06T10:03:20.456Z,6.45
2022-09-06T10:05:22.371Z,6.68
2022-09-06T10:07:25.143Z,6.65
2022-09-06T10:09:34.947Z,6.25
2022-09-06T10:11:45.206Z,6.40
2022-09-06T10:13:47.250Z,5.20
2022-09-06T10:15:52.005Z,5.95
2022-09-06T10:17:53.682Z,5.20
2022-09-06T10:19:55.781Z,5.35
2022-09-06T10:22:07.253Z,5.03
2022-09-06T10:24:33.978Z,4.93
2022-09-06T10:26:45.353Z,5.10
2022-09-06T10:28:46.884Z,4.85
2022-09-06T10:31:30.111Z,4.55
2022-09-06T10:34:04.513Z,4.20
2022-09-06T10:36:06.586Z,4.32
2022-09-06T10:38:15.738Z,4.63
2022-09-06T10:40:31.672Z,5.00
2022-09-06T10:42:42.059Z,4.95
2022-09-06T10:44:43.628Z,4.68
2022-09-06T10:46:46.465Z,4.65
2022-09-06T10:48:48.450Z,4.10
2022-09-06T10:51:19.004Z,4.22
2022-09-06T10:53:43.562Z,3.70
2022-09-06T10:55:58.727Z,4.72
2022-09-06T10:58:20.924Z,4.00
2022-09-06T11:00:27.298Z,3.97
2022-09-06T11:02:38.454Z,3.83
2022-09-06T11:07:15.429Z,3.58
2022-09-06T11:09:29.788Z,3.65
2022-09-06T11:11:43.997Z,3.55
2022-09-06T11:13:46.074Z,3.60
2022-09-06T11:15:57.050Z,3.55
2022-09-06T11:18:03.303Z,3.67
2022-09-06T11:20:17.176Z,3.50
2022-09-06T11:22:19.011Z,3.38
2022-09-06T11:24:39.703Z,3.10
2022-09-06T11:27:18.598Z,3.28
2022-09-06T11:29:25.597Z,2.85
2022-09-06T11:34:06.920Z,3.30
2022-09-06T11:36:26.905Z,3.60
2022-09-06T11:38:28.444Z,3.10
2022-09-06T11:40:38.171Z,3.08
2022-09-06T11:42:45.803Z,3.22
2022-09-06T11:44:50.232Z,3.05
2022-09-06T11:46:51.954Z,3.00
2022-09-06T11:49:07.496Z,2.63
2022-09-06T11:51:12.754Z,2.85
2022-09-06T11:53:17.539Z,3.20
2022-09-06T11:55:22.685Z,2.78
2022-09-06T11:57:26.410Z,2.58
2022-09-06T11:59:37.116Z,3.17
2022-09-06T12:01:40.854Z,2.95
2022-09-06T12:04:09.487Z,2.90
2022-09-06T12:06:21.977Z,2.80
2022-09-06T12:08:30.745Z,2.50
2022-09-06T12:10:42.043Z,2.75
2022-09-06T12:12:48.958Z,2.58
2022-09-06T12:14:50.573Z,2.50
2022-09-06T12:17:01.568Z,2.35
2022-09-06T12:19:06.168Z,2.50
2022-09-06T12:21:07.925Z,2.35
2022-09-06T12:23:35.275Z,2.20
2022-09-06T12:25:37.278Z,2.70
2022-09-06T12:27:50.441Z,2.42
2022-09-06T12:30:05.584Z,2.35
2022-09-06T12:32:08.596Z,2.30
2022-09-06T12:34:24.193Z,2.20
2022-09-06T12:36:31.040Z,2.42
2022-09-06T12:38:32.658Z,2.13
2022-09-06T12:40:40.769Z,2.60
2022-09-06T12:42:46.093Z,2.33
2022-09-06T12:44:51.911Z,2.30
2022-09-06T12:47:02.646Z,2.40
2022-09-06T12:49:10.687Z,2.15
2022-09-06T12:51:20.310Z,2.05
2022-09-06T12:53:24.962Z,2.17
2022-09-06T12:55:32.913Z,2.40
2022-09-06T12:57:34.525Z,2.20
2022-09-06T12:59:41.397Z,2.03
2022-09-06T13:02:02.377Z,1.98
2022-09-06T13:04:39.880Z,2.03
2022-09-06T13:06:45.684Z,2.10
2022-09-06T13:08:49.992Z,2.60
2022-09-06T13:10:52.300Z,2.42
2022-09-06T13:12:56.448Z,2.08
2022-09-06T13:15:05.175Z,2.33
2022-09-06T13:17:06.802Z,2.20
2022-09-06T13:19:14.089Z,1.90
2022-09-06T13:21:26.396Z,2.15
2022-09-06T13:23:28.243Z,1.80
2022-09-06T13:25:29.974Z,1.70
2022-09-06T13:27:31.548Z,1.80
2022-09-06T13:29:33.341Z,1.98
2022-09-06T13:31:35.022Z,1.92
2022-09-06T13:33:38.069Z,2.00
2022-09-06T13:35:39.884Z,2.05
2022-09-06T13:37:41.857Z,2.00
2022-09-06T13:39:46.644Z,2.05
2022-09-06T13:41:56.554Z,2.10
2022-09-06T13:44:18.887Z,1.60
2022-09-06T13:46:20.747Z,1.98
2022-09-06T13:48:28.997Z,1.73
2022-09-06T13:50:30.846Z,1.80
2022-09-06T13:52:33.206Z,1.60
2022-09-06T13:54:35.348Z,1.90
2022-09-06T13:56:37.881Z,1.65
2022-09-06T13:58:42.884Z,1.73
2022-09-06T14:00:46.509Z,1.73
2022-09-06T14:02:52.335Z,1.73
2022-09-06T14:04:55.116Z,1.85
2022-09-06T14:06:57.374Z,1.60
2022-09-06T14:09:08.037Z,1.85
2022-09-06T14:11:10.099Z,1.58
2022-09-06T14:13:15.188Z,1.90
2022-09-06T14:15:16.814Z,1.70
2022-09-06T14:17:18.576Z,1.83
2022-09-06T14:19:20.400Z,1.70
2022-09-06T14:21:25.098Z,1.88
2022-09-06T14:23:26.758Z,2.00
2022-09-06T14:25:29.058Z,1.75
2022-09-06T14:27:32.801Z,1.60
2022-09-06T14:29:36.120Z,1.83
2022-09-06T14:31:38.892Z,1.85
2022-09-06T14:33:43.818Z,1.70
2022-09-06T14:35:45.908Z,1.83
2022-09-06T14:37:49.126Z,1.60
2022-09-06T14:39:50.990Z,1.83
2022-09-06T14:41:55.616Z,1.77
2022-09-06T14:43:58.760Z,2.03
2022-09-06T14:46:08.822Z,1.85
2022-09-06T14:48:10.595Z,1.90
2022-09-06T14:50:12.712Z,1.67
2022-09-06T14:52:14.311Z,1.52
2022-09-06T14:54:16.010Z,1.60
2022-09-06T14:56:18.682Z,1.70
2022-09-06T14:58:20.167Z,1.60
2022-09-06T15:00:23.080Z,1.75
2022-09-06T15:02:26.340Z,1.67
2022-09-06T15:04:29.685Z,1.60
2022-09-06T15:06:33.426Z,1.77
2022-09-06T15:08:37.866Z,1.70
2022-09-06T15:10:42.601Z,1.58
2022-09-06T15:12:44.217Z,1.65
2022-09-06T15:14:47.038Z,1.52
2022-09-06T15:16:55.780Z,1.60
2022-09-06T15:18:57.829Z,1.58
2022-09-06T15:21:11.562Z,1.73
2022-09-06T15:23:24.645Z,1.45
2022-09-06T15:25:27.188Z,1.70
2022-09-06T15:27:29.527Z,1.63
2022-09-06T15:29:31.235Z,1.65
2022-09-06T15:31:34.278Z,1.83
2022-09-06T15:33:37.798Z,1.40
2022-09-06T15:35:39.684Z,1.52
2022-09-06T15:37:41.447Z,1.90
2022-09-06T15:39:43.388Z,1.55
2022-09-06T15:41:45.303Z,1.70
2022-09-06T15:43:49.028Z,1.67
2022-09-06T15:45:50.873Z,1.50
2022-09-06T15:48:01.473Z,1.55
2022-09-06T15:50:25.285Z,1.50
2022-09-06T15:52:36.351Z,1.80
2022-09-06T15:54:57.136Z,1.45
2022-09-06T15:56:58.638Z,1.70
2022-09-06T15:59:00.454Z,1.90
2022-09-06T16:01:27.087Z,1.70
2022-09-06T16:03:28.950Z,1.67
2022-09-06T16:07:59.619Z,1.75
2022-09-06T16:10:01.376Z,1.95
2022-09-06T16:12:03.332Z,1.80
2022-09-06T16:14:08.094Z,1.65
2022-09-06T16:16:15.258Z,1.67
2022-09-06T16:18:18.842Z,1.80
2022-09-06T16:20:23.231Z,1.73
2022-09-06T16:22:25.625Z,1.90
2022-09-06T16:24:27.473Z,1.88
2022-09-06T16:26:35.056Z,1.70
2022-09-06T16:28:40.558Z,1.80
2022-09-06T16:30:43.956Z,1.58
2022-09-06T16:32:45.614Z,2.53
2022-09-06T16:34:48.159Z,3.15
2022-09-06T16:36:50.107Z,5.63
2022-09-06T16:38:52.091Z,5.78
2022-09-06T16:40:53.677Z,5.75
2022-09-06T16:42:55.353Z,5.35
2022-09-06T16:44:56.959Z,5.00
2022-09-06T16:47:04.174Z,4.47
2022-09-06T16:49:08.838Z,4.22
2022-09-06T16:51:18.649Z,4.50
2022-09-06T16:53:22.259Z,3.78
2022-09-06T16:55:24.234Z,4.40
2022-09-06T16:57:29.024Z,4.30
2022-09-06T16:59:30.887Z,4.32
2022-09-06T17:01:33.779Z,5.18
2022-09-06T17:03:39.568Z,5.03
2022-09-06T17:05:43.602Z,5.15
2022-09-06T17:07:52.141Z,6.18
2022-09-06T17:09:54.065Z,8.27
2022-09-06T17:11:55.893Z,10.38
2022-09-06T17:13:57.948Z,11.43
2022-09-06T17:16:22.140Z,14.43
2022-09-06T17:18:26.566Z,15.32
2022-09-06T17:20:28.506Z,15.93
2022-09-06T17:22:30.216Z,13.93
2022-09-06T17:24:32.162Z,13.43
2022-09-06T17:26:36.315Z,11.05
2022-09-06T17:28:38.382Z,10.73
2022-09-06T17:30:40.363Z,9.05
2022-09-06T17:32:41.953Z,8.68
2022-09-06T17:34:46.246Z,7.85
2022-09-06T17:36:50.550Z,6.00
2022-09-06T17:38:54.965Z,5.72
2022-09-06T17:41:00.849Z,4.90
2022-09-06T17:43:05.542Z,4.47
2022-09-06T17:45:07.680Z,3.47
2022-09-06T17:47:12.946Z,3.55
2022-09-06T17:49:17.734Z,3.00
2022-09-06T17:51:19.490Z,2.60
2022-09-06T17:53:23.472Z,2.50
2022-09-06T17:55:25.530Z,2.50
2022-09-06T17:57:27.063Z,2.40
2022-09-06T17:59:34.213Z,2.13
2022-09-06T18:01:38.360Z,2.28
2022-09-06T18:03:41.647Z,2.15
2022-09-06T18:05:43.801Z,2.30
2022-09-06T18:07:45.825Z,2.00
2022-09-06T18:09:47.609Z,2.22
2022-09-06T18:11:49.343Z,1.83
2022-09-06T18:13:58.303Z,2.10
2022-09-06T18:16:03.372Z,2.42
2022-09-06T18:18:05.372Z,2.15
2022-09-06T18:20:07.979Z,2.53
2022-09-06T18:22:09.636Z,2.35
2022-09-06T18:24:13.969Z,2.40
2022-09-06T18:26:16.872Z,2.35
2022-09-06T18:28:18.533Z,2.22
2022-09-06T18:30:20.195Z,2.53
2022-09-06T18:32:21.827Z,2.40
2022-09-06T18:34:23.578Z,2.00
2022-09-06T18:36:29.834Z,1.90
2022-09-06T18:38:37.887Z,2.40
2022-09-06T18:40:39.570Z,2.47
2022-09-06T18:42:44.635Z,2.40
2022-09-06T18:44:50.003Z,2.50
2022-09-06T18:46:55.654Z,2.30
2022-09-06T18:48:57.816Z,2.17
2022-09-06T18:51:16.377Z,2.22
2022-09-06T18:53:18.313Z,2.50
2022-09-06T18:55:19.881Z,2.33
2022-09-06T18:57:24.670Z,2.70
2022-09-06T18:59:27.095Z,2.22
2022-09-06T19:01:30.246Z,2.50
2022-09-06T19:03:33.212Z,2.42
2022-09-06T19:05:39.184Z,2.50
2022-09-06T19:07:40.714Z,2.80
2022-09-06T19:09:42.355Z,2.63
2022-09-06T19:11:46.855Z,2.65
2022-09-06T19:13:53.277Z,2.40
2022-09-06T19:15:55.277Z,2.70
2022-09-06T19:17:57.260Z,2.63
2022-09-06T19:19:59.092Z,2.85
2022-09-06T19:22:00.891Z,2.63
2022-09-06T19:24:06.274Z,2.35
2022-09-06T19:26:14.490Z,2.50
2022-09-06T19:28:16.640Z,2.80
2022-09-06T19:30:19.967Z,2.92
2022-09-06T19:32:22.302Z,2.75
2022-09-06T19:34:24.061Z,2.60
2022-09-06T19:36:35.185Z,2.70
2022-09-06T19:38:59.529Z,3.35
2022-09-06T19:41:04.368Z,2.85
2022-09-06T19:43:05.957Z,2.95
2022-09-06T19:45:09.752Z,2.70
2022-09-06T19:47:13.416Z,2.75
2022-09-06T19:49:17.059Z,2.90
2022-09-06T19:51:25.980Z,2.67
2022-09-06T19:53:28.231Z,3.03
2022-09-06T19:55:36.239Z,2.70
2022-09-06T19:57:38.677Z,2.70
2022-09-06T19:59:40.432Z,2.60
2022-09-06T20:01:43.870Z,3.28
2022-09-06T20:03:45.609Z,3.00
2022-09-06T20:05:48.064Z,2.78
2022-09-06T20:07:49.800Z,2.90
2022-09-06T20:09:52.603Z,2.72
2022-09-06T20:11:55.338Z,2.40
2022-09-06T20:13:57.510Z,2.60
2022-09-06T20:15:59.285Z,2.60
2022-09-06T20:18:00.992Z,2.45
2022-09-06T20:20:03.464Z,2.25
2022-09-06T20:22:05.152Z,2.50
2022-09-06T20:24:09.549Z,2.40
2022-09-06T20:26:18.026Z,2.17
2022-09-06T20:28:19.619Z,2.25
2022-09-06T20:30:21.224Z,2.03
2022-09-06T20:32:22.856Z,2.13
2022-09-06T20:34:24.627Z,2.25
2022-09-06T20:36:26.374Z,2.53
2022-09-06T20:38:31.659Z,2.72
2022-09-06T20:40:33.337Z,2.50
2022-09-06T20:42:35.189Z,2.33
2022-09-06T20:44:36.904Z,2.88
2022-09-06T20:46:42.490Z,3.05
2022-09-06T20:48:45.551Z,2.72
2022-09-06T20:50:56.269Z,2.80
2022-09-06T20:52:57.771Z,2.85
2022-09-06T20:54:59.313Z,2.92
2022-09-06T20:57:00.815Z,3.13
2022-09-06T20:59:04.500Z,2.72
2022-09-06T21:01:12.594Z,3.33
2022-09-06T21:03:14.409Z,2.90
2022-09-06T21:05:16.403Z,3.22
2022-09-06T21:07:18.037Z,2.92
2022-09-06T21:09:21.417Z,3.05
2022-09-06T21:11:25.967Z,2.85
2022-09-06T21:13:28.801Z,2.90
2022-09-06T21:15:38.989Z,3.00
2022-09-06T21:17:40.592Z,2.70
2022-09-06T21:19:45.186Z,3.22
2022-09-06T21:21:46.822Z,9.38
2022-09-06T21:23:49.313Z,13.35
2022-09-06T21:26:14.889Z,13.15
2022-09-06T21:28:16.453Z,9.40
2022-09-06T21:30:18.949Z,8.48
2022-09-06T21:32:20.558Z,5.95
2022-09-06T21:34:22.553Z,5.63
2022-09-06T21:36:32.914Z,6.22
2022-09-06T21:38:36.513Z,6.28
2022-09-06T21:40:40.354Z,5.15
2022-09-06T21:42:42.019Z,4.78
2022-09-06T21:44:43.573Z,4.18
2022-09-06T21:46:45.322Z,4.25
2022-09-06T21:48:48.973Z,4.07
2022-09-06T21:50:54.153Z,3.05
2022-09-06T21:52:55.814Z,3.22
2022-09-06T21:54:59.357Z,2.72
2022-09-06T21:57:00.969Z,3.00
2022-09-06T21:59:04.281Z,2.35
2022-09-06T22:01:08.004Z,3.15
2022-09-06T22:03:09.912Z,2.97
2022-09-06T22:05:11.545Z,2.75
2022-09-06T22:07:13.378Z,3.03
2022-09-06T22:09:15.040Z,2.83
2022-09-06T22:11:19.503Z,3.20
2022-09-06T22:13:21.557Z,2.75
2022-09-06T22:15:23.717Z,3.15
2022-09-06T22:17:25.287Z,2.63
2022-09-06T22:19:26.946Z,3.03
2022-09-06T22:21:28.544Z,2.67
2022-09-06T22:23:30.104Z,2.97
2022-09-06T22:25:32.756Z,2.60
2022-09-06T22:27:34.325Z,2.78
2022-09-06T22:29:35.873Z,2.95
2022-09-06T22:31:38.074Z,2.67
2022-09-06T22:33:39.643Z,2.88
2022-09-06T22:35:41.410Z,2.88
2022-09-06T22:37:42.940Z,3.00
2022-09-06T22:39:44.866Z,2.90
2022-09-06T22:41:46.443Z,2.88
2022-09-06T22:43:53.926Z,3.15
2022-09-06T22:46:07.968Z,3.00
2022-09-06T22:48:09.517Z,2.83
2022-09-06T22:50:11.583Z,2.90
2022-09-06T22:52:13.179Z,3.00
2022-09-06T22:54:15.307Z,3.00
2022-09-06T22:56:16.916Z,3.13
2022-09-06T22:58:18.744Z,2.97
2022-09-06T23:00:20.322Z,2.92
2022-09-06T23:02:28.648Z,2.80
2022-09-06T23:04:30.737Z,2.70
2022-09-06T23:06:32.499Z,3.00
2022-09-06T23:08:36.722Z,3.30
2022-09-06T23:10:42.811Z,3.17
2022-09-06T23:12:44.301Z,3.00
2022-09-06T23:14:45.948Z,3.50
2022-09-06T23:16:47.549Z,2.80
2022-09-06T23:18:49.916Z,3.30
2022-09-06T23:20:51.682Z,3.55
2022-09-06T23:22:53.308Z,3.10
2022-09-06T23:24:54.881Z,3.22
2022-09-06T23:26:56.949Z,3.13
2022-09-06T23:28:58.632Z,3.42
2022-09-06T23:31:11.853Z,3.42
2022-09-06T23:33:15.992Z,3.22
2022-09-06T23:35:17.782Z,3.08
2022-09-06T23:37:20.026Z,3.20
2022-09-06T23:39:21.727Z,3.30
2022-09-06T23:41:24.026Z,2.80
2022-09-06T23:43:28.631Z,2.97
2022-09-06T23:45:30.508Z,3.78
2022-09-06T23:47:32.092Z,3.20
2022-09-06T23:49:33.728Z,3.47
2022-09-06T23:51:35.428Z,3.47
2022-09-06T23:53:40.302Z,3.53
2022-09-06T23:55:42.323Z,3.40
2022-09-06T23:57:43.765Z,3.70
2022-09-06T23:59:45.403Z,3.60
